createdAt,value
2022-10-01T00:01:02.864Z,100379.22
2022-10-01T00:03:44.360Z,100361.97
2022-10-01T00:06:29.613Z,100372.75
2022-10-01T00:09:12.070Z,100369.78
2022-10-01T00:11:50.148Z,100368.84
2022-10-01T00:14:37.804Z,100365.94
2022-10-01T00:17:26.869Z,100365.84
2022-10-01T00:20:14.139Z,100361.25
2022-10-01T00:22:53.004Z,100356.03
2022-10-01T00:25:37.579Z,100356.38
2022-10-01T00:28:12.226Z,100354.03
2022-10-01T00:30:49.453Z,100354.28
2022-10-01T00:33:22.182Z,100356.13
2022-10-01T00:35:57.045Z,100352.81
2022-10-01T00:38:29.232Z,100350.28
2022-10-01T00:40:59.779Z,100350.28
2022-10-01T00:43:32.252Z,100353.53
2022-10-01T00:46:06.311Z,100346.25
2022-10-01T00:48:48.826Z,100346.44
2022-10-01T00:51:21.182Z,100346.09
2022-10-01T00:53:51.739Z,100337.50
2022-10-01T00:56:28.518Z,100338.03
2022-10-01T00:58:59.056Z,100340.16
2022-10-01T01:01:32.679Z,100334.41
2022-10-01T01:04:16.300Z,100328.81
2022-10-01T01:06:51.704Z,100333.09
2022-10-01T01:09:27.162Z,100324.38
2022-10-01T01:12:08.614Z,100327.38
2022-10-01T01:14:44.543Z,100335.34
2022-10-01T01:17:21.457Z,100340.28
2022-10-01T01:20:23.172Z,100330.59
2022-10-01T01:23:03.003Z,100329.25
2022-10-01T01:25:43.576Z,100336.03
2022-10-01T01:28:25.683Z,100330.06
2022-10-01T01:31:01.088Z,100322.34
2022-10-01T01:33:35.338Z,100324.63
2022-10-01T01:36:10.405Z,100317.22
2022-10-01T01:38:49.274Z,100317.38
2022-10-01T01:41:22.972Z,100307.84
2022-10-01T01:44:03.309Z,100309.19
2022-10-01T01:46:37.772Z,100306.19
2022-10-01T01:49:10.208Z,100305.97
2022-10-01T01:51:46.474Z,100307.16
2022-10-01T01:54:19.940Z,100294.63
2022-10-01T01:56:56.107Z,100292.97
2022-10-01T01:59:34.033Z,100305.31
2022-10-01T02:02:11.281Z,100299.44
2022-10-01T02:04:54.764Z,100297.25
2022-10-01T02:07:40.504Z,100292.28
2022-10-01T02:10:22.828Z,100309.50
2022-10-01T02:13:11.932Z,100298.63
2022-10-01T02:15:56.151Z,100289.72
2022-10-01T02:18:37.026Z,100292.16
2022-10-01T02:21:15.032Z,100295.00
2022-10-01T02:23:51.959Z,100288.88
2022-10-01T02:26:30.143Z,100300.78
2022-10-01T02:29:05.132Z,100301.44
2022-10-01T02:31:39.167Z,100293.72
2022-10-01T02:34:19.947Z,100297.59
2022-10-01T02:40:00.315Z,100294.94
2022-10-01T02:42:33.666Z,100286.22
2022-10-01T02:45:07.578Z,100282.59
2022-10-01T02:47:47.379Z,100289.84
2022-10-01T02:50:18.304Z,100296.78
2022-10-01T02:53:01.567Z,100282.88
2022-10-01T02:55:36.187Z,100286.97
2022-10-01T02:58:04.366Z,100282.88
2022-10-01T03:00:43.523Z,100278.28
2022-10-01T03:03:18.195Z,100275.72
2022-10-01T03:05:50.186Z,100276.38
2022-10-01T03:08:24.395Z,100276.56
2022-10-01T03:10:55.738Z,100271.94
2022-10-01T03:13:27.231Z,100265.38
2022-10-01T03:15:57.690Z,100263.66
2022-10-01T03:18:31.671Z,100257.97
2022-10-01T03:21:01.850Z,100248.69
2022-10-01T03:23:32.971Z,100248.31
2022-10-01T03:26:03.773Z,100251.31
2022-10-01T03:28:34.804Z,100256.13
2022-10-01T03:31:13.121Z,100248.41
2022-10-01T03:33:46.824Z,100254.81
2022-10-01T03:36:17.093Z,100239.66
2022-10-01T03:38:48.149Z,100239.56
2022-10-01T03:41:24.268Z,100230.84
2022-10-01T03:44:00.688Z,100223.50
2022-10-01T03:46:36.930Z,100223.38
2022-10-01T03:49:17.984Z,100223.38
2022-10-01T03:51:48.909Z,100215.94
2022-10-01T03:54:20.413Z,100224.81
2022-10-01T03:56:55.289Z,100221.44
2022-10-01T03:59:28.536Z,100222.91
2022-10-01T04:01:59.969Z,100216.03
2022-10-01T04:04:33.676Z,100209.34
2022-10-01T04:07:04.702Z,100212.38
2022-10-01T04:09:37.739Z,100214.97
2022-10-01T04:12:08.165Z,100218.97
2022-10-01T04:14:39.105Z,100209.06
2022-10-01T04:17:12.764Z,100213.66
2022-10-01T04:19:46.112Z,100207.09
2022-10-01T04:22:16.783Z,100208.75
2022-10-01T04:24:54.148Z,100213.69
2022-10-01T04:27:28.207Z,100200.66
2022-10-01T04:29:59.287Z,100203.06
2022-10-01T04:32:29.608Z,100203.06
2022-10-01T04:35:04.531Z,100201.44
2022-10-01T04:37:35.016Z,100200.31
2022-10-01T04:40:05.870Z,100203.44
2022-10-01T04:42:35.949Z,100201.16
2022-10-01T04:45:07.756Z,100198.59
2022-10-01T04:47:40.740Z,100209.16
2022-10-01T04:50:14.900Z,100198.13
2022-10-01T04:52:46.093Z,100200.44
2022-10-01T04:55:18.812Z,100194.97
2022-10-01T04:57:57.022Z,100186.94
2022-10-01T05:00:28.228Z,100186.59
2022-10-01T05:03:00.570Z,100187.38
2022-10-01T05:05:35.180Z,100181.66
2022-10-01T05:08:06.593Z,100179.88
2022-10-01T05:10:37.536Z,100179.84
2022-10-01T05:13:08.080Z,100180.53
2022-10-01T05:15:46.954Z,100185.38
2022-10-01T05:18:24.400Z,100180.78
2022-10-01T05:21:15.791Z,100187.50
2022-10-01T05:23:50.122Z,100171.50
2022-10-01T05:29:19.082Z,100180.75
2022-10-01T05:31:50.442Z,100181.91
2022-10-01T05:34:23.016Z,100176.66
2022-10-01T05:43:40.784Z,100166.28
2022-10-01T05:57:08.376Z,100146.84
2022-10-01T05:59:54.282Z,100140.09
2022-10-01T06:02:52.561Z,100141.25
2022-10-01T06:05:29.214Z,100126.19
2022-10-01T06:08:11.906Z,100125.06
2022-10-01T06:11:34.891Z,100123.22
2022-10-01T06:14:10.176Z,100117.75
2022-10-01T06:16:54.077Z,100110.50
2022-10-01T06:19:49.305Z,100108.53
2022-10-01T06:23:24.642Z,100095.38
2022-10-01T06:43:36.173Z,100083.34
2022-10-01T06:49:47.845Z,100079.88
2022-10-01T06:52:36.320Z,100078.72
2022-10-01T06:55:16.468Z,100072.66
2022-10-01T06:58:11.019Z,100074.66
2022-10-01T07:00:41.786Z,100066.09
2022-10-01T07:03:19.856Z,100061.28
2022-10-01T07:06:13.202Z,100057.81
2022-10-01T07:08:46.440Z,100055.53
2022-10-01T07:11:28.672Z,100049.59
2022-10-01T07:14:25.265Z,100047.63
2022-10-01T07:16:55.677Z,100050.25
2022-10-01T07:19:28.525Z,100041.22
2022-10-01T07:21:58.720Z,100033.81
2022-10-01T07:24:29.283Z,100031.16
2022-10-01T07:27:01.661Z,100036.56
2022-10-01T07:29:35.464Z,100035.59
2022-10-01T07:32:10.788Z,100033.28
2022-10-01T07:35:11.737Z,100022.06
2022-10-01T07:38:27.820Z,100016.78
2022-10-01T07:40:59.134Z,100020.41
2022-10-01T07:43:29.446Z,100009.88
2022-10-01T07:46:02.922Z,100015.94
2022-10-01T07:48:33.124Z,100008.53
2022-10-01T07:51:07.045Z,100012.16
2022-10-01T07:53:37.317Z,99999.91
2022-10-01T07:56:10.971Z,99982.47
2022-10-01T07:58:41.276Z,99996.81
2022-10-01T08:01:12.581Z,99994.13
2022-10-01T08:04:40.473Z,99985.72
2022-10-01T08:07:37.785Z,99973.06
2022-10-01T08:10:32.348Z,99982.47
2022-10-01T08:14:18.952Z,99967.78
2022-10-01T08:16:50.164Z,99960.94
2022-10-01T08:19:20.606Z,99956.31
2022-10-01T08:21:52.747Z,99958.00
2022-10-01T08:24:25.690Z,99954.69
2022-10-01T08:26:57.827Z,99956.53
2022-10-01T08:29:27.746Z,99948.75
2022-10-01T08:31:58.645Z,99961.31
2022-10-01T08:34:28.481Z,99952.91
2022-10-01T08:36:58.631Z,99946.53
2022-10-01T08:39:31.008Z,99952.91
2022-10-01T08:42:09.969Z,99944.91
2022-10-01T08:44:43.661Z,99945.38
2022-10-01T08:47:18.960Z,99941.22
2022-10-01T08:49:54.066Z,99932.88
2022-10-01T08:52:27.707Z,99941.03
2022-10-01T08:55:04.437Z,99939.22
2022-10-01T08:57:42.119Z,99931.38
2022-10-01T09:00:16.944Z,99926.03
2022-10-01T09:02:48.777Z,99925.69
2022-10-01T09:05:26.412Z,99920.63
2022-10-01T09:08:11.461Z,99910.50
2022-10-01T09:10:50.803Z,99912.97
2022-10-01T09:13:36.060Z,99911.41
2022-10-01T09:16:18.697Z,99905.47
2022-10-01T09:19:12.843Z,99903.56
2022-10-01T09:29:27.434Z,99879.78
2022-10-01T09:35:37.065Z,99867.81
2022-10-01T09:38:51.554Z,99868.47
2022-10-01T09:41:23.289Z,99854.59
2022-10-01T09:43:54.005Z,99896.31
2022-10-01T09:54:13.339Z,99856.31
2022-10-01T10:04:23.572Z,99848.69
2022-10-01T10:06:54.514Z,99830.19
2022-10-01T10:10:22.183Z,99849.56
2022-10-01T10:13:07.118Z,99817.59
2022-10-01T10:15:53.005Z,99830.59
2022-10-01T10:18:34.884Z,99820.63
2022-10-01T10:21:09.292Z,99818.25
2022-10-01T10:24:02.109Z,99811.69
2022-10-01T10:30:46.407Z,99827.31
2022-10-01T10:37:26.309Z,99824.31
2022-10-01T10:40:29.094Z,99814.13
2022-10-01T10:44:07.372Z,99813.25
2022-10-01T10:47:42.559Z,99823.38
2022-10-01T10:50:42.016Z,99797.00
2022-10-01T10:54:13.712Z,99790.25
2022-10-01T10:57:00.720Z,99799.44
2022-10-01T10:59:59.758Z,99788.53
2022-10-01T11:02:47.326Z,99794.09
2022-10-01T11:05:58.812Z,99782.03
2022-10-01T11:08:45.050Z,99818.31
2022-10-01T11:11:53.066Z,99818.97
2022-10-01T11:15:01.698Z,99818.66
2022-10-01T11:18:23.895Z,99786.25
2022-10-01T11:25:43.938Z,99805.84
2022-10-01T11:28:46.283Z,99780.59
2022-10-01T11:32:02.901Z,99783.22
2022-10-01T11:34:54.490Z,99787.19
2022-10-01T11:37:45.019Z,99779.91
2022-10-01T11:41:03.344Z,99768.63
2022-10-01T11:43:47.104Z,99772.56
2022-10-01T11:46:30.197Z,99761.38
2022-10-01T11:49:07.482Z,99782.84
2022-10-01T11:51:55.847Z,99759.09
2022-10-01T11:54:34.967Z,99764.97
2022-10-01T11:57:30.935Z,99766.91
2022-10-01T12:00:12.465Z,99768.50
2022-10-01T12:18:10.944Z,99761.34
2022-10-01T12:21:05.601Z,99763.84
2022-10-01T12:24:09.780Z,99749.78
2022-10-01T12:27:15.775Z,99758.16
2022-10-01T12:30:01.578Z,99757.06
2022-10-01T12:33:17.715Z,99758.28
2022-10-01T12:36:09.944Z,99751.47
2022-10-01T12:39:16.043Z,99767.19
2022-10-01T12:42:06.526Z,99781.72
2022-10-01T12:45:29.286Z,99760.31
2022-10-01T12:51:46.540Z,99752.47
2022-10-01T12:54:37.904Z,99751.78
2022-10-01T13:00:22.886Z,99738.53
2022-10-01T13:03:25.940Z,99732.44
2022-10-01T13:06:16.129Z,99751.72
2022-10-01T13:09:17.043Z,99737.63
2022-10-01T13:12:52.207Z,99736.19
2022-10-01T13:16:13.542Z,99738.25
2022-10-01T13:19:25.921Z,99746.56
2022-10-01T13:22:13.262Z,99753.66
2022-10-01T13:25:09.272Z,99744.16
2022-10-01T13:31:27.677Z,99747.66
2022-10-01T15:09:40.246Z,99722.28
2022-10-01T15:29:28.834Z,99731.28
2022-10-01T15:32:52.669Z,99742.19
2022-10-01T15:35:26.765Z,99744.69
2022-10-01T15:38:15.004Z,99733.66
2022-10-01T15:41:30.940Z,99746.34
2022-10-01T15:44:46.206Z,99741.97
2022-10-01T15:47:40.711Z,99741.69
2022-10-01T15:50:26.504Z,99740.63
2022-10-01T15:53:28.945Z,99751.59
2022-10-01T15:56:03.158Z,99755.06
2022-10-01T15:58:39.484Z,99749.13
2022-10-01T16:01:22.426Z,99757.31
2022-10-01T16:04:07.298Z,99747.22
2022-10-01T16:06:48.405Z,99751.19
2022-10-01T16:09:25.704Z,99746.38
2022-10-01T16:12:11.601Z,99744.41
2022-10-01T16:14:54.158Z,99754.53
2022-10-01T16:24:53.419Z,99764.81
2022-10-01T16:27:26.504Z,99756.41
2022-10-01T16:30:04.744Z,99768.72
2022-10-01T16:32:36.507Z,99766.25
2022-10-01T16:35:28.333Z,99770.88
2022-10-01T16:38:00.614Z,99772.31
2022-10-01T16:40:36.851Z,99768.66
2022-10-01T17:23:53.497Z,99807.41
2022-10-01T17:27:16.018Z,99814.25
2022-10-01T17:30:37.858Z,99800.22
2022-10-01T17:34:15.596Z,99799.72
2022-10-01T17:37:08.021Z,99806.00
2022-10-01T17:39:43.434Z,99801.72
2022-10-01T17:42:18.634Z,99801.56
2022-10-01T17:44:58.996Z,99804.31
2022-10-01T17:47:30.913Z,99811.16
2022-10-01T17:50:12.415Z,99816.56
2022-10-01T17:52:44.565Z,99810.28
2022-10-01T17:59:42.288Z,99805.81
2022-10-01T18:02:50.276Z,99809.91
2022-10-01T18:05:36.998Z,99820.19
2022-10-01T18:08:29.556Z,99820.00
2022-10-01T18:11:31.411Z,99836.16
2022-10-01T18:14:08.500Z,99828.50
2022-10-01T18:16:42.365Z,99834.41
2022-10-01T18:22:13.653Z,99854.50
2022-10-01T18:24:45.819Z,99855.22
2022-10-01T18:27:23.044Z,99849.03
2022-10-01T18:29:53.737Z,99860.16
2022-10-01T18:37:48.381Z,99869.63
2022-10-01T18:41:28.773Z,99872.00
2022-10-01T18:48:35.722Z,99886.59
2022-10-01T19:13:19.903Z,99930.00
2022-10-01T19:16:41.676Z,99941.28
2022-10-01T19:20:49.953Z,99947.16
2022-10-01T19:37:00.712Z,99978.41
2022-10-01T19:49:13.455Z,99993.91
2022-10-01T19:52:02.534Z,99999.53
2022-10-01T19:55:26.489Z,99994.81
2022-10-01T21:11:30.217Z,100107.44
2022-10-01T21:22:42.535Z,100135.06
2022-10-01T21:26:21.221Z,100126.81
2022-10-01T21:30:32.504Z,100139.84
2022-10-01T21:33:39.683Z,100149.88
2022-10-01T21:53:49.168Z,100189.38
2022-10-01T21:57:22.954Z,100167.28
2022-10-01T22:01:23.525Z,100194.50
2022-10-01T22:03:51.523Z,100200.56
2022-10-01T22:07:23.341Z,100202.09
2022-10-01T22:10:43.768Z,100213.44
2022-10-01T22:18:22.988Z,100221.22
2022-10-01T22:24:57.609Z,100229.63
2022-10-01T22:28:02.489Z,100235.91
2022-10-01T22:56:08.130Z,100288.88
2022-10-01T22:59:51.764Z,100292.69
2022-10-01T23:28:33.486Z,100325.81
2022-10-01T23:31:49.453Z,100323.03
2022-10-01T23:35:30.286Z,100337.22
2022-10-01T23:44:01.223Z,100356.63
2022-10-01T23:47:29.957Z,100357.69
2022-10-01T23:50:52.289Z,100351.88
2022-10-01T23:53:58.532Z,100366.41
